Time,TemperatureF,DewpointF,PressureIn,WindDirection,WindDirectionDegrees,WindSpeedMPH,WindSpeedGustMPH,Humidity,HourlyPrecipIn,Conditions,Clouds,dailyrainin,SoftwareType,DateUTC
2013-12-20 00:02:00,41.5,38.2,29.78,South,180,0.0,1.1,88,0.00,,,0.00,WUHU21623XXSP,2013-12-20 06:02:00,
2013-12-20 00:07:00,41.5,37.9,29.78,South,180,0.0,0.0,87,0.00,,,0.00,WUHU21623XXSP,2013-12-20 06:07:00,
2013-12-20 00:12:00,41.5,37.9,29.78,SSW,202,0.0,0.0,87,0.00,,,0.00,WUHU21623XXSP,2013-12-20 06:12:00,
2013-12-20 00:17:00,41.5,37.9,29.78,South,180,0.0,3.1,87,0.00,,,0.00,WUHU21623XXSP,2013-12-20 06:17:00,
2013-12-20 00:23:00,41.4,37.7,29.78,South,180,0.0,3.1,87,0.00,,,0.00,WUHU21623XXSP,2013-12-20 06:23:00,
2013-12-20 00:28:00,41.4,37.7,29.77,South,180,0.0,0.0,87,0.00,,,0.00,WUHU21623XXSP,2013-12-20 06:28:00,
2013-12-20 00:32:00,41.4,37.7,29.77,SSE,157,0.0,0.0,87,0.00,,,0.00,WUHU21623XXSP,2013-12-20 06:32:00,
2013-12-20 00:38:00,41.4,37.7,29.76,SSE,157,0.0,0.0,87,0.00,,,0.00,WUHU21623XXSP,2013-12-20 06:38:00,
2013-12-20 00:42:00,41.2,37.6,29.77,SSE,157,0.0,0.0,87,0.00,,,0.00,WUHU21623XXSP,2013-12-20 06:42:00,
2013-12-20 00:47:00,41.2,37.6,29.77,SSE,157,0.0,0.0,87,0.00,,,0.00,WUHU21623XXSP,2013-12-20 06:47:00,
2013-12-20 00:53:00,41.2,37.6,29.76,SSE,157,0.0,0.0,87,0.00,,,0.00,WUHU21623XXSP,2013-12-20 06:53:00,
2013-12-20 00:58:00,41.2,37.6,29.76,SSE,157,0.0,0.0,87,0.00,,,0.00,WUHU21623XXSP,2013-12-20 06:58:00,
2013-12-20 01:02:00,40.8,37.2,29.76,SSE,157,0.0,0.0,87,0.00,,,0.00,WUHU21623XXSP,2013-12-20 07:02:00,
2013-12-20 01:07:00,40.8,37.2,29.76,SSE,157,0.0,0.0,87,0.00,,,0.00,WUHU21623XXSP,2013-12-20 07:07:00,
2013-12-20 01:13:00,40.8,37.2,29.76,SSE,157,0.0,0.0,87,0.00,,,0.00,WUHU21623XXSP,2013-12-20 07:13:00,
2013-12-20 01:18:00,40.6,37.0,29.75,SSE,157,0.0,0.0,87,0.00,,,0.00,WUHU21623XXSP,2013-12-20 07:18:00,
2013-12-20 01:23:00,40.6,37.0,29.75,SSE,157,0.0,0.0,87,0.00,,,0.00,WUHU21623XXSP,2013-12-20 07:23:00,
2013-12-20 01:27:00,40.5,36.8,29.75,SSE,157,0.0,0.0,87,0.00,,,0.00,WUHU21623XXSP,2013-12-20 07:27:00,
2013-12-20 01:32:00,40.6,36.8,29.76,SSE,157,0.0,0.0,87,0.00,,,0.00,WUHU21623XXSP,2013-12-20 07:32:00,
2013-12-20 01:37:00,40.6,37.0,29.76,SSE,157,0.0,0.0,87,0.00,,,0.00,WUHU21623XXSP,2013-12-20 07:37:00,
2013-12-20 01:42:00,40.6,37.0,29.76,SSW,202,0.0,0.0,87,0.00,,,0.00,WUHU21623XXSP,2013-12-20 07:42:00,
2013-12-20 01:47:00,40.8,37.2,29.76,SSW,202,0.0,0.0,87,0.00,,,0.00,WUHU21623XXSP,2013-12-20 07:47:00,
2013-12-20 01:52:00,41.0,37.4,29.76,SSW,202,0.0,0.0,87,0.00,,,0.00,WUHU21623XXSP,2013-12-20 07:52:00,
2013-12-20 01:57:00,41.2,37.6,29.76,South,180,0.0,0.0,87,0.00,,,0.00,WUHU21623XXSP,2013-12-20 07:57:00,
2013-12-20 02:02:00,41.5,37.6,29.76,SSW,202,0.0,1.6,86,0.00,,,0.00,WUHU21623XXSP,2013-12-20 08:02:00,
2013-12-20 02:07:00,41.7,37.8,29.76,SSW,202,2.0,2.0,86,0.00,,,0.00,WUHU21623XXSP,2013-12-20 08:07:00,
2013-12-20 02:12:00,41.7,37.8,29.76,SSW,202,0.0,3.8,86,0.00,,,0.00,WUHU21623XXSP,2013-12-20 08:12:00,
2013-12-20 02:18:00,41.9,38.0,29.76,SW,225,0.0,3.8,86,0.00,,,0.00,WUHU21623XXSP,2013-12-20 08:18:00,
2013-12-20 02:23:00,41.9,38.0,29.76,SW,225,0.0,2.5,86,0.00,,,0.00,WUHU21623XXSP,2013-12-20 08:23:00,
2013-12-20 02:27:00,41.9,38.0,29.76,SSW,202,0.0,0.0,86,0.00,,,0.00,WUHU21623XXSP,2013-12-20 08:27:00,
2013-12-20 02:32:00,41.9,38.0,29.76,SW,225,0.0,0.0,86,0.00,,,0.00,WUHU21623XXSP,2013-12-20 08:32:00,
2013-12-20 02:37:00,41.9,38.0,29.76,SSW,202,4.5,4.5,86,0.00,,,0.00,WUHU21623XXSP,2013-12-20 08:37:00,
2013-12-20 02:43:00,41.7,38.0,29.76,South,180,0.0,4.5,86,0.00,,,0.00,WUHU21623XXSP,2013-12-20 08:43:00,
2013-12-20 02:48:00,41.7,37.8,29.76,South,180,1.8,4.5,86,0.00,,,0.00,WUHU21623XXSP,2013-12-20 08:48:00,
2013-12-20 02:53:00,41.7,37.8,29.75,SSW,202,3.1,3.1,86,0.00,,,0.00,WUHU21623XXSP,2013-12-20 08:53:00,
2013-12-20 02:58:00,41.7,37.8,29.75,SSW,202,0.0,5.6,86,0.00,,,0.00,WUHU21623XXSP,2013-12-20 08:58:00,
2013-12-20 03:03:00,41.7,37.8,29.75,SSW,202,0.0,5.6,86,0.00,,,0.00,WUHU21623XXSP,2013-12-20 09:03:00,
2013-12-20 03:08:00,41.7,37.8,29.75,SSW,202,0.0,3.1,86,0.00,,,0.00,WUHU21623XXSP,2013-12-20 09:08:00,
2013-12-20 03:13:00,41.7,37.8,29.75,SSW,202,6.7,6.7,86,0.00,,,0.00,WUHU21623XXSP,2013-12-20 09:13:00,
2013-12-20 03:18:00,41.9,38.0,29.75,SSW,202,0.0,6.7,86,0.00,,,0.00,WUHU21623XXSP,2013-12-20 09:18:00,
2013-12-20 03:23:00,41.9,38.0,29.75,SW,225,0.0,6.3,86,0.00,,,0.00,WUHU21623XXSP,2013-12-20 09:23:00,
2013-12-20 03:28:00,41.9,38.0,29.75,South,180,0.0,6.3,86,0.00,,,0.00,WUHU21623XXSP,2013-12-20 09:28:00,
2013-12-20 03:33:00,41.9,38.0,29.75,South,180,2.5,2.5,86,0.00,,,0.00,WUHU21623XXSP,2013-12-20 09:33:00,
2013-12-20 03:38:00,41.9,38.0,29.75,South,180,0.0,2.5,86,0.00,,,0.00,WUHU21623XXSP,2013-12-20 09:38:00,
2013-12-20 03:43:00,41.9,38.0,29.75,WSW,247,0.0,0.0,86,0.00,,,0.00,WUHU21623XXSP,2013-12-20 09:43:00,
2013-12-20 03:48:00,42.1,38.2,29.75,SW,225,0.0,3.1,86,0.00,,,0.00,WUHU21623XXSP,2013-12-20 09:48:00,
2013-12-20 03:53:00,42.1,38.2,29.75,SW,225,0.0,3.1,86,0.00,,,0.00,WUHU21623XXSP,2013-12-20 09:53:00,
2013-12-20 03:58:00,42.1,38.2,29.74,SSW,202,0.0,0.0,86,0.00,,,0.00,WUHU21623XXSP,2013-12-20 09:58:00,
2013-12-20 04:03:00,42.1,38.2,29.75,SSW,202,0.0,0.0,86,0.00,,,0.00,WUHU21623XXSP,2013-12-20 10:03:00,
2013-12-20 04:08:00,42.1,38.2,29.75,South,180,0.0,0.0,86,0.00,,,0.00,WUHU21623XXSP,2013-12-20 10:08:00,
2013-12-20 04:13:00,42.1,38.2,29.75,SSW,202,7.6,7.6,86,0.00,,,0.00,WUHU21623XXSP,2013-12-20 10:13:00,
2013-12-20 04:18:00,42.1,37.9,29.74,SSW,202,0.0,7.6,85,0.00,,,0.00,WUHU21623XXSP,2013-12-20 10:18:00,
2013-12-20 04:23:00,42.1,37.9,29.74,SSW,202,0.0,1.3,85,0.00,,,0.00,WUHU21623XXSP,2013-12-20 10:23:00,
2013-12-20 04:28:00,42.1,37.9,29.74,SSW,202,2.5,6.0,85,0.00,,,0.00,WUHU21623XXSP,2013-12-20 10:28:00,
2013-12-20 04:33:00,42.1,37.9,29.74,SSE,157,0.4,6.0,85,0.00,,,0.00,WUHU21623XXSP,2013-12-20 10:33:00,
2013-12-20 04:38:00,42.1,37.9,29.74,SSW,202,7.2,7.2,85,0.00,,,0.00,WUHU21623XXSP,2013-12-20 10:38:00,
2013-12-20 04:43:00,42.4,38.2,29.74,South,180,6.3,7.2,85,0.03,,,0.03,WUHU21623XXSP,2013-12-20 10:43:00,
2013-12-20 04:48:00,42.4,38.2,29.74,SSW,202,0.0,6.3,85,0.03,,,0.03,WUHU21623XXSP,2013-12-20 10:48:00,
2013-12-20 04:53:00,42.4,38.2,29.74,SW,225,0.0,5.4,85,0.03,,,0.03,WUHU21623XXSP,2013-12-20 10:53:00,
2013-12-20 04:58:00,42.4,38.2,29.75,WSW,247,0.0,0.0,85,0.03,,,0.03,WUHU21623XXSP,2013-12-20 10:58:00,
2013-12-20 05:03:00,42.4,38.2,29.75,WSW,247,0.0,0.0,85,0.03,,,0.03,WUHU21623XXSP,2013-12-20 11:03:00,
2013-12-20 05:08:00,42.4,38.2,29.75,WSW,247,0.0,0.0,85,0.03,,,0.03,WUHU21623XXSP,2013-12-20 11:08:00,
2013-12-20 05:13:00,42.1,37.9,29.75,WSW,247,0.0,0.0,85,0.03,,,0.03,WUHU21623XXSP,2013-12-20 11:13:00,
2013-12-20 05:19:00,42.1,37.9,29.75,WSW,247,0.0,0.0,85,0.03,,,0.03,WUHU21623XXSP,2013-12-20 11:19:00,
2013-12-20 05:24:00,42.1,37.9,29.75,WSW,247,0.0,0.0,85,0.03,,,0.03,WUHU21623XXSP,2013-12-20 11:24:00,
2013-12-20 05:29:00,41.9,37.7,29.75,West,270,0.0,0.0,85,0.03,,,0.03,WUHU21623XXSP,2013-12-20 11:29:00,
2013-12-20 05:34:00,41.9,37.7,29.75,West,270,0.0,0.0,85,0.03,,,0.03,WUHU21623XXSP,2013-12-20 11:34:00,
2013-12-20 05:39:00,41.9,37.4,29.75,West,270,0.0,0.0,85,0.03,,,0.03,WUHU21623XXSP,2013-12-20 11:39:00,
2013-12-20 05:44:00,41.7,37.5,29.75,West,270,0.0,0.0,85,0.00,,,0.03,WUHU21623XXSP,2013-12-20 11:44:00,
2013-12-20 05:49:00,41.5,37.5,29.75,West,270,0.0,0.0,85,0.00,,,0.03,WUHU21623XXSP,2013-12-20 11:49:00,
2013-12-20 05:54:00,41.7,37.2,29.75,West,270,0.0,0.0,85,0.00,,,0.03,WUHU21623XXSP,2013-12-20 11:54:00,
2013-12-20 05:59:00,41.5,37.0,29.75,West,270,0.0,0.0,84,0.00,,,0.03,WUHU21623XXSP,2013-12-20 11:59:00,
2013-12-20 06:04:00,41.5,37.3,29.75,West,270,0.0,0.0,85,0.00,,,0.03,WUHU21623XXSP,2013-12-20 12:04:00,
2013-12-20 06:09:00,41.4,37.1,29.75,West,270,0.0,0.0,85,0.00,,,0.03,WUHU21623XXSP,2013-12-20 12:09:00,
2013-12-20 06:14:00,41.0,37.0,29.75,West,270,0.0,0.0,85,0.00,,,0.03,WUHU21623XXSP,2013-12-20 12:14:00,
2013-12-20 06:19:00,40.8,36.6,29.75,West,270,0.0,0.0,85,0.00,,,0.03,WUHU21623XXSP,2013-12-20 12:19:00,
2013-12-20 06:24:00,40.8,36.6,29.76,West,270,0.0,0.0,85,0.00,,,0.03,WUHU21623XXSP,2013-12-20 12:24:00,
2013-12-20 06:29:00,40.5,36.2,29.75,West,270,0.0,0.0,85,0.00,,,0.03,WUHU21623XXSP,2013-12-20 12:29:00,
2013-12-20 06:34:00,40.5,36.2,29.76,West,270,0.0,0.0,85,0.00,,,0.03,WUHU21623XXSP,2013-12-20 12:34:00,
2013-12-20 06:39:00,40.1,36.1,29.76,West,270,0.0,0.0,85,0.00,,,0.03,WUHU21623XXSP,2013-12-20 12:39:00,
2013-12-20 06:44:00,40.1,35.9,29.76,West,270,0.0,0.0,85,0.00,,,0.03,WUHU21623XXSP,2013-12-20 12:44:00,
2013-12-20 06:49:00,39.9,35.7,29.75,West,270,0.0,0.0,85,0.00,,,0.03,WUHU21623XXSP,2013-12-20 12:49:00,
2013-12-20 06:54:00,39.7,35.6,29.76,West,270,0.0,0.0,85,0.00,,,0.03,WUHU21623XXSP,2013-12-20 12:54:00,
2013-12-20 06:59:00,39.4,35.4,29.75,West,270,0.0,0.0,85,0.00,,,0.03,WUHU21623XXSP,2013-12-20 12:59:00,
2013-12-20 07:04:00,39.2,35.2,29.76,West,270,0.0,0.0,85,0.00,,,0.03,WUHU21623XXSP,2013-12-20 13:04:00,
2013-12-20 07:09:00,38.8,34.7,29.76,West,270,0.0,0.0,85,0.00,,,0.03,WUHU21623XXSP,2013-12-20 13:09:00,
2013-12-20 07:14:00,38.8,34.7,29.77,West,270,0.0,0.0,85,0.00,,,0.03,WUHU21623XXSP,2013-12-20 13:14:00,
2013-12-20 07:19:00,38.7,34.5,29.77,West,270,0.0,0.0,85,0.00,,,0.03,WUHU21623XXSP,2013-12-20 13:19:00,
2013-12-20 07:24:00,38.3,34.2,29.77,NW,315,0.0,0.0,85,0.00,,,0.03,WUHU21623XXSP,2013-12-20 13:24:00,
2013-12-20 07:29:00,38.1,34.0,29.77,NNW,337,0.0,0.0,85,0.00,,,0.03,WUHU21623XXSP,2013-12-20 13:29:00,
2013-12-20 07:34:00,37.6,33.4,29.77,NNW,337,0.0,0.0,85,0.00,,,0.03,WUHU21623XXSP,2013-12-20 13:34:00,
2013-12-20 07:40:00,37.2,33.1,29.76,NNE,22,2.0,2.0,85,0.00,,,0.03,WUHU21623XXSP,2013-12-20 13:40:00,
2013-12-20 07:45:00,37.0,32.6,29.76,NNE,22,0.0,2.0,84,0.00,,,0.03,WUHU21623XXSP,2013-12-20 13:45:00,
2013-12-20 07:50:00,37.0,32.6,29.77,NNE,22,0.0,2.0,84,0.00,,,0.03,WUHU21623XXSP,2013-12-20 13:50:00,
2013-12-20 07:55:00,36.9,32.4,29.77,NNE,22,0.0,0.0,84,0.00,,,0.03,WUHU21623XXSP,2013-12-20 13:55:00,
2013-12-20 08:00:00,36.7,32.3,29.76,North,0,0.0,0.0,84,0.00,,,0.03,WUHU21623XXSP,2013-12-20 14:00:00,
2013-12-20 08:05:00,36.7,32.3,29.77,NNE,22,0.0,0.0,84,0.00,,,0.03,WUHU21623XXSP,2013-12-20 14:05:00,
2013-12-20 08:10:00,36.7,32.3,29.77,NNE,22,0.0,0.0,84,0.00,,,0.03,WUHU21623XXSP,2013-12-20 14:10:00,
2013-12-20 08:15:00,36.5,32.1,29.77,NNE,22,0.0,0.0,84,0.00,,,0.03,WUHU21623XXSP,2013-12-20 14:15:00,
2013-12-20 08:20:00,36.3,31.8,29.77,NNE,22,0.0,0.0,83,0.00,,,0.03,WUHU21623XXSP,2013-12-20 14:20:00,
2013-12-20 08:25:00,36.3,31.6,29.77,NNE,22,0.0,0.0,83,0.00,,,0.03,WUHU21623XXSP,2013-12-20 14:25:00,
2013-12-20 08:30:00,36.3,31.6,29.77,NNE,22,4.3,4.3,83,0.00,,,0.03,WUHU21623XXSP,2013-12-20 14:30:00,
2013-12-20 08:35:00,36.5,31.8,29.77,ENE,67,1.3,4.3,82,0.00,,,0.03,WUHU21623XXSP,2013-12-20 14:35:00,
2013-12-20 08:40:00,36.3,31.3,29.78,ENE,67,0.0,2.0,82,0.00,,,0.03,WUHU21623XXSP,2013-12-20 14:40:00,
2013-12-20 08:45:00,36.5,31.5,29.78,NE,45,0.0,5.4,82,0.00,,,0.03,WUHU21623XXSP,2013-12-20 14:45:00,
2013-12-20 08:50:00,36.5,31.5,29.78,NE,45,0.0,5.4,82,0.00,,,0.03,WUHU21623XXSP,2013-12-20 14:50:00,
2013-12-20 08:55:00,36.3,31.3,29.78,NE,45,3.1,3.1,82,0.00,,,0.03,WUHU21623XXSP,2013-12-20 14:55:00,
2013-12-20 09:00:00,36.3,31.3,29.78,NNE,22,0.0,3.1,82,0.00,,,0.03,WUHU21623XXSP,2013-12-20 15:00:00,
2013-12-20 09:05:00,36.3,31.3,29.77,NNE,22,0.0,0.0,82,0.00,,,0.03,WUHU21623XXSP,2013-12-20 15:05:00,
2013-12-20 09:10:00,36.3,31.3,29.78,NE,45,0.0,0.0,82,0.00,,,0.03,WUHU21623XXSP,2013-12-20 15:10:00,
2013-12-20 09:15:00,36.3,31.3,29.78,NE,45,0.0,0.0,82,0.00,,,0.03,WUHU21623XXSP,2013-12-20 15:15:00,
2013-12-20 09:20:00,36.1,31.1,29.78,NE,45,0.0,0.0,82,0.00,,,0.03,WUHU21623XXSP,2013-12-20 15:20:00,
2013-12-20 09:25:00,36.3,31.0,29.78,NE,45,0.0,1.8,81,0.00,,,0.03,WUHU21623XXSP,2013-12-20 15:25:00,
2013-12-20 09:30:00,36.1,30.8,29.78,NE,45,0.0,1.8,81,0.00,,,0.03,WUHU21623XXSP,2013-12-20 15:30:00,
2013-12-20 09:35:00,36.3,30.8,29.78,NE,45,0.0,1.1,81,0.00,,,0.03,WUHU21623XXSP,2013-12-20 15:35:00,
2013-12-20 09:40:00,36.1,30.8,29.78,ENE,67,0.0,6.5,81,0.00,,,0.03,WUHU21623XXSP,2013-12-20 15:40:00,
2013-12-20 09:45:00,36.3,30.8,29.78,ENE,67,2.7,6.5,81,0.00,,,0.03,WUHU21623XXSP,2013-12-20 15:45:00,
2013-12-20 09:50:00,36.1,30.8,29.78,ENE,67,7.2,7.2,81,0.00,,,0.03,WUHU21623XXSP,2013-12-20 15:50:00,
2013-12-20 09:55:00,36.1,30.8,29.78,NE,45,0.0,7.2,81,0.02,,,0.05,WUHU21623XXSP,2013-12-20 15:55:00,
2013-12-20 10:00:00,36.3,31.0,29.77,NE,45,5.6,5.6,81,0.02,,,0.05,WUHU21623XXSP,2013-12-20 16:00:00,
2013-12-20 10:05:00,36.1,30.8,29.77,NE,45,0.0,5.6,81,0.02,,,0.05,WUHU21623XXSP,2013-12-20 16:05:00,
2013-12-20 10:10:00,36.1,30.8,29.77,ENE,67,0.0,0.0,81,0.02,,,0.05,WUHU21623XXSP,2013-12-20 16:10:00,
2013-12-20 10:15:00,36.1,30.8,29.77,NE,45,2.9,7.4,81,0.02,,,0.05,WUHU21623XXSP,2013-12-20 16:15:00,
2013-12-20 10:20:00,36.3,30.8,29.77,NE,45,0.0,7.4,81,0.02,,,0.05,WUHU21623XXSP,2013-12-20 16:20:00,
2013-12-20 10:25:00,36.1,30.8,29.77,ENE,67,0.9,0.9,81,0.02,,,0.05,WUHU21623XXSP,2013-12-20 16:25:00,
2013-12-20 10:30:00,36.1,30.8,29.77,ENE,67,0.0,0.9,81,0.02,,,0.05,WUHU21623XXSP,2013-12-20 16:30:00,
2013-12-20 10:35:00,36.1,30.8,29.77,ENE,67,0.0,0.0,81,0.02,,,0.05,WUHU21623XXSP,2013-12-20 16:35:00,
2013-12-20 10:40:00,36.1,30.8,29.77,ENE,67,0.0,0.0,81,0.02,,,0.05,WUHU21623XXSP,2013-12-20 16:40:00,
2013-12-20 10:45:00,36.3,31.0,29.77,ENE,67,0.0,0.0,81,0.02,,,0.05,WUHU21623XXSP,2013-12-20 16:45:00,
2013-12-20 10:50:00,36.3,30.8,29.77,ENE,67,0.0,0.0,81,0.00,,,0.05,WUHU21623XXSP,2013-12-20 16:50:00,
2013-12-20 10:55:00,36.1,31.0,29.77,ENE,67,5.1,5.1,81,0.00,,,0.05,WUHU21623XXSP,2013-12-20 16:55:00,
2013-12-20 11:00:00,36.1,30.6,29.77,ENE,67,0.0,5.1,80,0.00,,,0.05,WUHU21623XXSP,2013-12-20 17:00:00,
2013-12-20 11:05:00,36.1,30.8,29.77,ENE,67,0.0,0.0,81,0.00,,,0.05,WUHU21623XXSP,2013-12-20 17:05:00,
2013-12-20 11:10:00,36.1,30.8,29.77,ENE,67,0.0,0.0,81,0.00,,,0.05,WUHU21623XXSP,2013-12-20 17:10:00,
2013-12-20 11:16:00,36.1,30.6,29.76,ENE,67,0.0,0.0,80,0.00,,,0.05,WUHU21623XXSP,2013-12-20 17:16:00,
2013-12-20 11:21:00,36.1,30.6,29.75,ENE,67,0.0,0.0,80,0.00,,,0.05,WUHU21623XXSP,2013-12-20 17:21:00,
2013-12-20 11:26:00,36.1,30.6,29.76,ENE,67,0.0,0.0,80,0.00,,,0.05,WUHU21623XXSP,2013-12-20 17:26:00,
2013-12-20 11:31:00,36.1,30.6,29.76,ENE,67,0.0,0.0,80,0.00,,,0.05,WUHU21623XXSP,2013-12-20 17:31:00,
2013-12-20 11:36:00,36.3,30.7,29.75,ENE,67,0.0,0.0,80,0.00,,,0.05,WUHU21623XXSP,2013-12-20 17:36:00,
2013-12-20 11:41:00,36.1,30.6,29.75,ENE,67,0.0,0.0,80,0.00,,,0.05,WUHU21623XXSP,2013-12-20 17:41:00,
2013-12-20 11:46:00,36.1,30.6,29.76,ENE,67,0.0,0.0,80,0.00,,,0.05,WUHU21623XXSP,2013-12-20 17:46:00,
2013-12-20 11:51:00,36.1,30.6,29.75,ENE,67,0.0,0.0,80,0.00,,,0.05,WUHU21623XXSP,2013-12-20 17:51:00,
2013-12-20 11:56:00,36.1,30.6,29.75,ENE,67,0.0,0.0,80,0.00,,,0.05,WUHU21623XXSP,2013-12-20 17:56:00,
2013-12-20 12:01:00,36.1,30.6,29.74,ENE,67,0.0,0.0,80,0.00,,,0.05,WUHU21623XXSP,2013-12-20 18:01:00,
2013-12-20 12:06:00,36.3,30.7,29.74,ENE,67,0.0,0.0,80,0.00,,,0.05,WUHU21623XXSP,2013-12-20 18:06:00,
2013-12-20 12:11:00,36.3,30.7,29.73,ENE,67,0.0,0.0,80,0.00,,,0.05,WUHU21623XXSP,2013-12-20 18:11:00,
2013-12-20 12:16:00,36.3,30.7,29.73,ENE,67,0.0,0.0,80,0.00,,,0.05,WUHU21623XXSP,2013-12-20 18:16:00,
2013-12-20 12:21:00,36.3,30.7,29.72,ENE,67,0.0,0.0,80,0.00,,,0.05,WUHU21623XXSP,2013-12-20 18:21:00,
2013-12-20 12:26:00,36.3,30.7,29.73,ENE,67,0.0,0.0,80,0.00,,,0.05,WUHU21623XXSP,2013-12-20 18:26:00,
2013-12-20 12:31:00,36.3,30.7,29.73,NE,45,0.0,3.4,80,0.00,,,0.05,WUHU21623XXSP,2013-12-20 18:31:00,
2013-12-20 12:36:00,36.3,30.7,29.72,NE,45,0.0,3.4,80,0.00,,,0.05,WUHU21623XXSP,2013-12-20 18:36:00,
2013-12-20 12:41:00,36.3,30.7,29.72,NE,45,0.0,0.0,80,0.00,,,0.05,WUHU21623XXSP,2013-12-20 18:41:00,
2013-12-20 12:46:00,36.3,30.7,29.72,NE,45,0.0,0.0,80,0.00,,,0.05,WUHU21623XXSP,2013-12-20 18:46:00,
2013-12-20 12:51:00,36.3,30.7,29.72,NE,45,0.0,0.0,80,0.00,,,0.05,WUHU21623XXSP,2013-12-20 18:51:00,
2013-12-20 12:56:00,36.3,30.7,29.72,NE,45,0.0,0.0,80,0.00,,,0.05,WUHU21623XXSP,2013-12-20 18:56:00,
2013-12-20 13:01:00,36.1,30.6,29.72,NE,45,0.0,0.0,80,0.00,,,0.05,WUHU21623XXSP,2013-12-20 19:01:00,
2013-12-20 13:06:00,36.1,30.6,29.72,NE,45,0.0,0.0,80,0.00,,,0.05,WUHU21623XXSP,2013-12-20 19:06:00,
2013-12-20 13:11:00,36.3,30.6,29.72,NE,45,0.0,0.0,79,0.00,,,0.05,WUHU21623XXSP,2013-12-20 19:11:00,
2013-12-20 13:16:00,36.1,30.2,29.72,NE,45,0.0,2.2,80,0.00,,,0.05,WUHU21623XXSP,2013-12-20 19:16:00,
2013-12-20 13:21:00,36.1,30.2,29.71,NE,45,0.0,2.2,79,0.00,,,0.05,WUHU21623XXSP,2013-12-20 19:21:00,
2013-12-20 13:26:00,36.1,30.2,29.71,NE,45,0.0,0.0,79,0.00,,,0.05,WUHU21623XXSP,2013-12-20 19:26:00,
2013-12-20 13:31:00,36.1,30.2,29.72,NE,45,0.0,0.0,79,0.00,,,0.05,WUHU21623XXSP,2013-12-20 19:31:00,
2013-12-20 13:33:00,36.3,30.4,29.72,NE,45,0.0,0.0,79,0.00,,,0.05,WUHU21623XXSP,2013-12-20 19:33:00,
2013-12-20 13:38:00,36.1,30.2,29.72,NE,45,0.0,0.0,79,0.00,,,0.05,WUHU21623XXSP,2013-12-20 19:38:00,
2013-12-20 13:43:00,36.3,30.2,29.72,NE,45,0.0,1.8,79,0.00,,,0.05,WUHU21623XXSP,2013-12-20 19:43:00,
2013-12-20 13:48:00,36.1,30.2,29.72,NNE,22,0.0,1.8,79,0.00,,,0.05,WUHU21623XXSP,2013-12-20 19:48:00,
2013-12-20 13:53:00,36.1,30.2,29.71,NNE,22,0.0,0.0,79,0.00,,,0.05,WUHU21623XXSP,2013-12-20 19:53:00,
2013-12-20 13:58:00,36.1,30.2,29.71,North,0,0.0,0.0,79,0.00,,,0.05,WUHU21623XXSP,2013-12-20 19:58:00,
2013-12-20 14:03:00,36.0,30.1,29.71,NNE,22,0.0,0.0,79,0.00,,,0.05,WUHU21623XXSP,2013-12-20 20:03:00,
2013-12-20 14:08:00,36.1,30.2,29.71,NNE,22,0.0,0.0,79,0.00,,,0.05,WUHU21623XXSP,2013-12-20 20:08:00,
2013-12-20 14:13:00,36.1,30.2,29.71,NNE,22,0.0,0.0,79,0.00,,,0.05,WUHU21623XXSP,2013-12-20 20:13:00,
2013-12-20 14:18:00,36.0,30.1,29.70,NNE,22,0.0,0.0,79,0.00,,,0.05,WUHU21623XXSP,2013-12-20 20:18:00,
2013-12-20 14:23:00,36.0,30.2,29.70,NNE,22,0.0,0.0,79,0.00,,,0.05,WUHU21623XXSP,2013-12-20 20:23:00,
2013-12-20 14:28:00,36.0,30.1,29.71,NNE,22,0.0,0.0,79,0.00,,,0.05,WUHU21623XXSP,2013-12-20 20:28:00,
2013-12-20 14:33:00,36.1,30.2,29.71,NNE,22,0.0,0.0,79,0.00,,,0.05,WUHU21623XXSP,2013-12-20 20:33:00,
2013-12-20 14:38:00,36.1,30.1,29.72,NNE,22,0.0,0.0,79,0.00,,,0.05,WUHU21623XXSP,2013-12-20 20:38:00,
2013-12-20 14:43:00,36.0,30.1,29.72,NNE,22,0.0,0.0,79,0.00,,,0.05,WUHU21623XXSP,2013-12-20 20:43:00,
2013-12-20 14:48:00,36.0,30.1,29.72,NNE,22,0.0,0.0,79,0.00,,,0.05,WUHU21623XXSP,2013-12-20 20:48:00,
2013-12-20 14:53:00,36.1,30.2,29.72,NNE,22,0.0,0.0,79,0.00,,,0.05,WUHU21623XXSP,2013-12-20 20:53:00,
2013-12-20 14:58:00,36.1,30.2,29.72,NNE,22,0.0,0.0,79,0.00,,,0.05,WUHU21623XXSP,2013-12-20 20:58:00,
2013-12-20 15:03:00,36.1,30.2,29.73,NNE,22,0.0,0.0,79,0.00,,,0.05,WUHU21623XXSP,2013-12-20 21:03:00,
2013-12-20 15:08:00,36.1,30.2,29.73,NNE,22,0.0,0.0,79,0.00,,,0.05,WUHU21623XXSP,2013-12-20 21:08:00,
2013-12-20 15:13:00,36.1,30.2,29.73,NNE,22,0.0,0.0,79,0.00,,,0.05,WUHU21623XXSP,2013-12-20 21:13:00,
2013-12-20 15:18:00,36.0,30.1,29.74,NNE,22,0.0,0.0,79,0.00,,,0.05,WUHU21623XXSP,2013-12-20 21:18:00,
2013-12-20 15:23:00,36.0,30.1,29.74,NNE,22,0.0,0.0,79,0.00,,,0.05,WUHU21623XXSP,2013-12-20 21:23:00,
2013-12-20 15:28:00,36.0,30.1,29.74,NNE,22,0.0,3.4,79,0.00,,,0.05,WUHU21623XXSP,2013-12-20 21:28:00,
2013-12-20 15:33:00,36.0,30.1,29.73,NNE,22,0.0,3.4,79,0.00,,,0.05,WUHU21623XXSP,2013-12-20 21:33:00,
2013-12-20 15:38:00,36.0,30.1,29.74,NNE,22,0.0,0.0,79,0.00,,,0.05,WUHU21623XXSP,2013-12-20 21:38:00,
2013-12-20 15:43:00,35.8,29.9,29.74,NNE,22,0.0,0.0,79,0.00,,,0.05,WUHU21623XXSP,2013-12-20 21:43:00,
2013-12-20 15:48:00,35.8,29.9,29.74,NNE,22,0.0,0.0,79,0.00,,,0.05,WUHU21623XXSP,2013-12-20 21:48:00,
2013-12-20 15:53:00,35.8,29.9,29.74,NNE,22,0.0,0.0,79,0.00,,,0.05,WUHU21623XXSP,2013-12-20 21:53:00,
2013-12-20 15:58:00,36.0,30.1,29.75,NNE,22,0.0,0.0,79,0.00,,,0.05,WUHU21623XXSP,2013-12-20 21:58:00,
2013-12-20 16:03:00,35.8,29.9,29.74,NNE,22,0.0,0.0,79,0.00,,,0.05,WUHU21623XXSP,2013-12-20 22:03:00,
2013-12-20 16:08:00,35.8,29.9,29.74,NNE,22,0.0,0.0,79,0.00,,,0.05,WUHU21623XXSP,2013-12-20 22:08:00,
2013-12-20 16:13:00,35.8,29.9,29.74,NNE,22,0.0,0.0,79,0.00,,,0.05,WUHU21623XXSP,2013-12-20 22:13:00,
2013-12-20 16:19:00,35.8,29.9,29.74,NNE,22,0.0,0.0,79,0.00,,,0.05,WUHU21623XXSP,2013-12-20 22:19:00,
2013-12-20 16:24:00,35.8,29.9,29.74,NNE,22,0.0,0.0,79,0.00,,,0.05,WUHU21623XXSP,2013-12-20 22:24:00,
2013-12-20 16:29:00,35.8,29.9,29.74,NNE,22,0.0,0.0,79,0.00,,,0.05,WUHU21623XXSP,2013-12-20 22:29:00,
2013-12-20 16:34:00,35.4,29.5,29.73,NNE,22,0.0,0.0,79,0.00,,,0.05,WUHU21623XXSP,2013-12-20 22:34:00,
2013-12-20 16:39:00,35.4,29.5,29.74,NNE,22,0.0,0.0,79,0.00,,,0.05,WUHU21623XXSP,2013-12-20 22:39:00,
2013-12-20 16:44:00,35.4,29.5,29.74,NNE,22,0.0,0.0,79,0.00,,,0.05,WUHU21623XXSP,2013-12-20 22:44:00,
2013-12-20 16:49:00,35.4,29.5,29.74,NNE,22,0.0,0.0,79,0.00,,,0.05,WUHU21623XXSP,2013-12-20 22:49:00,
2013-12-20 16:54:00,35.4,29.5,29.73,NNE,22,0.0,0.0,79,0.00,,,0.05,WUHU21623XXSP,2013-12-20 22:54:00,
2013-12-20 16:59:00,35.4,29.5,29.74,NNE,22,0.0,0.0,79,0.00,,,0.05,WUHU21623XXSP,2013-12-20 22:59:00,
2013-12-20 17:04:00,35.4,29.5,29.74,NNE,22,0.0,0.0,79,0.00,,,0.05,WUHU21623XXSP,2013-12-20 23:04:00,
2013-12-20 17:09:00,35.4,29.5,29.74,NNE,22,0.0,0.0,79,0.00,,,0.05,WUHU21623XXSP,2013-12-20 23:09:00,
2013-12-20 17:14:00,35.4,29.5,29.74,NNE,22,0.0,0.0,79,0.00,,,0.05,WUHU21623XXSP,2013-12-20 23:14:00,
2013-12-20 17:19:00,35.4,29.5,29.74,NNE,22,0.0,0.0,79,0.00,,,0.05,WUHU21623XXSP,2013-12-20 23:19:00,
2013-12-20 17:24:00,35.4,29.5,29.74,NNE,22,0.0,0.0,79,0.00,,,0.05,WUHU21623XXSP,2013-12-20 23:24:00,
2013-12-20 17:29:00,35.4,29.5,29.75,NNE,22,0.0,0.0,79,0.00,,,0.05,WUHU21623XXSP,2013-12-20 23:29:00,
2013-12-20 17:34:00,35.4,29.5,29.75,NNE,22,0.0,0.0,79,0.00,,,0.05,WUHU21623XXSP,2013-12-20 23:34:00,
2013-12-20 17:39:00,35.4,29.5,29.75,NNE,22,0.0,0.0,79,0.00,,,0.05,WUHU21623XXSP,2013-12-20 23:39:00,
2013-12-20 17:44:00,35.4,29.5,29.75,NNE,22,0.0,0.0,79,0.00,,,0.05,WUHU21623XXSP,2013-12-20 23:44:00,
2013-12-20 17:49:00,35.4,29.5,29.75,NNE,22,0.0,0.0,79,0.00,,,0.05,WUHU21623XXSP,2013-12-20 23:49:00,
2013-12-20 17:54:00,35.4,29.5,29.75,NNE,22,0.0,0.0,79,0.00,,,0.05,WUHU21623XXSP,2013-12-20 23:54:00,
2013-12-20 17:59:00,35.2,29.5,29.74,NNE,22,0.0,0.0,79,0.00,,,0.05,WUHU21623XXSP,2013-12-20 23:59:00,
2013-12-20 18:04:00,35.2,29.3,29.73,NNE,22,0.0,0.0,79,0.00,,,0.05,WUHU21623XXSP,2013-12-21 00:04:00,
2013-12-20 18:09:00,35.2,29.3,29.73,NNE,22,0.0,0.0,79,0.00,,,0.05,WUHU21623XXSP,2013-12-21 00:09:00,
2013-12-20 18:14:00,35.2,29.3,29.73,NNE,22,0.0,0.0,79,0.00,,,0.05,WUHU21623XXSP,2013-12-21 00:14:00,
2013-12-20 18:19:00,35.2,29.3,29.74,NNE,22,0.0,0.0,79,0.00,,,0.05,WUHU21623XXSP,2013-12-21 00:19:00,
2013-12-20 18:24:00,35.2,29.3,29.73,NNE,22,0.0,0.0,79,0.00,,,0.05,WUHU21623XXSP,2013-12-21 00:24:00,
2013-12-20 18:29:00,35.4,29.5,29.73,NNE,22,0.0,0.0,79,0.00,,,0.05,WUHU21623XXSP,2013-12-21 00:29:00,
2013-12-20 18:34:00,35.4,29.5,29.75,NNE,22,0.0,0.0,79,0.00,,,0.05,WUHU21623XXSP,2013-12-21 00:34:00,
2013-12-20 18:39:00,35.4,29.5,29.75,NNE,22,0.0,0.0,79,0.00,,,0.05,WUHU21623XXSP,2013-12-21 00:39:00,
2013-12-20 18:44:00,35.4,29.5,29.76,NNE,22,0.0,0.0,79,0.00,,,0.05,WUHU21623XXSP,2013-12-21 00:44:00,
2013-12-20 18:49:00,35.2,29.3,29.76,NNE,22,0.0,0.0,79,0.00,,,0.05,WUHU21623XXSP,2013-12-21 00:49:00,
2013-12-20 18:54:00,35.2,29.3,29.76,NNE,22,0.0,0.0,79,0.00,,,0.05,WUHU21623XXSP,2013-12-21 00:54:00,
2013-12-20 18:59:00,35.2,29.3,29.76,NNE,22,0.0,0.0,79,0.00,,,0.05,WUHU21623XXSP,2013-12-21 00:59:00,
2013-12-20 19:04:00,35.2,29.3,29.77,NNE,22,0.0,0.0,79,0.00,,,0.05,WUHU21623XXSP,2013-12-21 01:04:00,
2013-12-20 19:09:00,35.2,29.3,29.77,NW,315,4.0,4.0,79,0.00,,,0.05,WUHU21623XXSP,2013-12-21 01:09:00,
2013-12-20 19:14:00,35.2,29.3,29.77,WNW,292,5.1,5.1,79,0.00,,,0.05,WUHU21623XXSP,2013-12-21 01:14:00,
2013-12-20 19:19:00,35.2,29.3,29.77,NW,315,6.0,6.0,79,0.00,,,0.05,WUHU21623XXSP,2013-12-21 01:19:00,
2013-12-20 19:24:00,35.2,29.3,29.77,NW,315,0.0,6.0,79,0.00,,,0.05,WUHU21623XXSP,2013-12-21 01:24:00,
2013-12-20 19:29:00,35.2,29.3,29.77,NW,315,4.3,4.3,79,0.00,,,0.05,WUHU21623XXSP,2013-12-21 01:29:00,
2013-12-20 19:35:00,35.2,29.2,29.77,NNW,337,0.0,4.3,79,0.00,,,0.05,WUHU21623XXSP,2013-12-21 01:35:00,
2013-12-20 19:39:00,35.2,29.3,29.77,NNW,337,0.0,0.0,79,0.00,,,0.05,WUHU21623XXSP,2013-12-21 01:39:00,
2013-12-20 19:45:00,35.1,29.2,29.78,NNW,337,0.0,0.0,79,0.00,,,0.05,WUHU21623XXSP,2013-12-21 01:45:00,
2013-12-20 19:50:00,34.9,29.2,29.78,NNW,337,0.0,0.0,79,0.00,,,0.05,WUHU21623XXSP,2013-12-21 01:50:00,
2013-12-20 19:55:00,34.9,29.0,29.77,NNW,337,0.0,0.0,79,0.00,,,0.05,WUHU21623XXSP,2013-12-21 01:55:00,
2013-12-20 20:00:00,34.9,29.0,29.77,NNW,337,0.0,0.0,79,0.00,,,0.05,WUHU21623XXSP,2013-12-21 02:00:00,
2013-12-20 20:05:00,34.9,29.0,29.78,NW,315,0.0,0.0,79,0.00,,,0.05,WUHU21623XXSP,2013-12-21 02:05:00,
2013-12-20 20:09:00,34.9,29.0,29.77,WNW,292,0.0,0.0,79,0.00,,,0.05,WUHU21623XXSP,2013-12-21 02:09:00,
2013-12-20 20:14:00,34.9,29.0,29.78,WNW,292,0.0,0.0,79,0.00,,,0.05,WUHU21623XXSP,2013-12-21 02:14:00,
2013-12-20 20:20:00,34.9,29.0,29.78,WNW,292,0.0,0.0,79,0.00,,,0.05,WUHU21623XXSP,2013-12-21 02:20:00,
2013-12-20 20:25:00,34.9,29.0,29.78,WNW,292,0.0,0.0,79,0.00,,,0.05,WUHU21623XXSP,2013-12-21 02:25:00,
2013-12-20 20:30:00,34.9,29.0,29.78,WNW,292,0.0,1.1,79,0.00,,,0.05,WUHU21623XXSP,2013-12-21 02:30:00,
2013-12-20 20:35:00,34.9,29.0,29.78,WNW,292,0.0,1.1,79,0.00,,,0.05,WUHU21623XXSP,2013-12-21 02:35:00,
2013-12-20 20:40:00,34.9,29.0,29.79,WNW,292,0.0,0.0,79,0.00,,,0.05,WUHU21623XXSP,2013-12-21 02:40:00,
2013-12-20 20:45:00,34.9,29.0,29.79,WNW,292,0.0,0.0,79,0.00,,,0.05,WUHU21623XXSP,2013-12-21 02:45:00,
2013-12-20 20:50:00,34.9,29.0,29.79,WNW,292,0.0,0.0,79,0.00,,,0.05,WUHU21623XXSP,2013-12-21 02:50:00,
2013-12-20 20:55:00,34.9,29.0,29.79,WNW,292,0.0,0.0,79,0.00,,,0.05,WUHU21623XXSP,2013-12-21 02:55:00,
2013-12-20 21:00:00,34.7,28.8,29.80,WNW,292,0.0,0.0,79,0.00,,,0.05,WUHU21623XXSP,2013-12-21 03:00:00,
2013-12-20 21:05:00,34.7,28.8,29.80,WNW,292,0.0,0.0,79,0.00,,,0.05,WUHU21623XXSP,2013-12-21 03:05:00,
2013-12-20 21:10:00,34.7,28.8,29.80,WNW,292,0.0,0.0,79,0.00,,,0.05,WUHU21623XXSP,2013-12-21 03:10:00,
2013-12-20 21:15:00,34.7,28.8,29.80,WNW,292,0.0,0.0,79,0.00,,,0.05,WUHU21623XXSP,2013-12-21 03:15:00,
2013-12-20 21:20:00,34.5,28.6,29.80,West,270,2.0,2.0,79,0.00,,,0.05,WUHU21623XXSP,2013-12-21 03:20:00,
2013-12-20 21:25:00,34.5,28.6,29.80,West,270,0.0,2.0,79,0.00,,,0.05,WUHU21623XXSP,2013-12-21 03:25:00,
2013-12-20 21:30:00,34.5,28.6,29.80,West,270,0.0,2.0,79,0.00,,,0.05,WUHU21623XXSP,2013-12-21 03:30:00,
2013-12-20 21:35:00,34.5,28.6,29.79,West,270,0.0,0.0,79,0.00,,,0.05,WUHU21623XXSP,2013-12-21 03:35:00,
2013-12-20 21:40:00,34.3,28.4,29.80,West,270,0.0,0.0,79,0.00,,,0.05,WUHU21623XXSP,2013-12-21 03:40:00,
2013-12-20 21:45:00,34.3,28.4,29.79,West,270,0.0,0.0,79,0.00,,,0.05,WUHU21623XXSP,2013-12-21 03:45:00,
2013-12-20 21:50:00,34.3,28.4,29.79,West,270,0.0,0.0,79,0.00,,,0.05,WUHU21623XXSP,2013-12-21 03:50:00,
2013-12-20 21:55:00,34.3,28.4,29.79,West,270,0.0,0.0,79,0.00,,,0.05,WUHU21623XXSP,2013-12-21 03:55:00,
2013-12-20 22:00:00,34.3,28.4,29.79,West,270,0.0,0.0,79,0.00,,,0.05,WUHU21623XXSP,2013-12-21 04:00:00,
2013-12-20 22:05:00,34.3,28.4,29.79,West,270,0.0,0.0,79,0.00,,,0.05,WUHU21623XXSP,2013-12-21 04:05:00,
2013-12-20 22:10:00,34.3,28.8,29.79,WNW,292,0.0,0.0,80,0.00,,,0.05,WUHU21623XXSP,2013-12-21 04:10:00,
2013-12-20 22:15:00,34.3,28.8,29.78,WNW,292,0.0,0.0,80,0.00,,,0.05,WUHU21623XXSP,2013-12-21 04:15:00,
2013-12-20 22:20:00,34.3,28.8,29.78,WNW,292,0.0,0.0,80,0.00,,,0.05,WUHU21623XXSP,2013-12-21 04:20:00,
2013-12-20 22:25:00,34.3,28.8,29.78,WNW,292,0.0,0.0,80,0.00,,,0.05,WUHU21623XXSP,2013-12-21 04:25:00,
2013-12-20 22:30:00,34.3,28.8,29.78,WNW,292,0.0,0.0,80,0.00,,,0.05,WUHU21623XXSP,2013-12-21 04:30:00,
2013-12-20 22:35:00,34.3,28.4,29.79,WNW,292,0.0,0.0,79,0.00,,,0.05,WUHU21623XXSP,2013-12-21 04:35:00,
2013-12-20 22:40:00,34.3,28.4,29.79,WNW,292,0.0,0.0,79,0.00,,,0.05,WUHU21623XXSP,2013-12-21 04:40:00,
2013-12-20 22:45:00,34.3,28.4,29.79,WNW,292,0.0,0.0,79,0.00,,,0.05,WUHU21623XXSP,2013-12-21 04:45:00,
2013-12-20 22:50:00,34.3,28.4,29.79,WNW,292,0.0,0.0,79,0.00,,,0.05,WUHU21623XXSP,2013-12-21 04:50:00,
2013-12-20 22:55:00,34.3,28.4,29.80,WNW,292,0.0,0.0,79,0.00,,,0.05,WUHU21623XXSP,2013-12-21 04:55:00,
2013-12-20 23:00:00,34.3,28.4,29.79,WNW,292,0.0,0.0,79,0.00,,,0.05,WUHU21623XXSP,2013-12-21 05:00:00,
2013-12-20 23:01:00,34.3,28.4,29.79,WNW,292,0.0,0.0,79,0.00,,,0.05,WUHU21623XXSP,2013-12-21 05:01:00,
2013-12-20 23:02:00,34.3,28.4,29.79,WNW,292,0.0,0.0,79,0.00,,,0.05,WUHU21623XXSP,2013-12-21 05:02:00,
2013-12-20 23:07:00,34.3,28.4,29.80,WNW,292,0.0,0.0,79,0.00,,,0.05,WUHU21623XXSP,2013-12-21 05:07:00,
2013-12-20 23:12:00,34.3,28.4,29.80,WNW,292,0.0,0.0,79,0.00,,,0.05,WUHU21623XXSP,2013-12-21 05:12:00,
2013-12-20 23:17:00,34.3,28.4,29.80,WNW,292,0.0,0.0,79,0.00,,,0.05,WUHU21623XXSP,2013-12-21 05:17:00,
2013-12-20 23:22:00,34.3,28.4,29.80,WNW,292,0.0,0.0,79,0.00,,,0.05,WUHU21623XXSP,2013-12-21 05:22:00,
2013-12-20 23:27:00,34.3,28.4,29.80,WNW,292,0.0,0.0,79,0.00,,,0.05,WUHU21623XXSP,2013-12-21 05:27:00,
2013-12-20 23:32:00,34.2,28.4,29.80,WNW,292,0.0,0.0,79,0.00,,,0.05,WUHU21623XXSP,2013-12-21 05:32:00,
2013-12-20 23:37:00,34.2,28.3,29.80,WNW,292,0.0,0.0,79,0.00,,,0.05,WUHU21623XXSP,2013-12-21 05:37:00,
2013-12-20 23:42:00,34.0,28.6,29.80,WNW,292,0.0,0.0,80,0.00,,,0.05,WUHU21623XXSP,2013-12-21 05:42:00,
2013-12-20 23:47:00,34.0,28.4,29.80,WNW,292,0.0,0.0,80,0.00,,,0.05,WUHU21623XXSP,2013-12-21 05:47:00,
2013-12-20 23:52:00,34.0,28.4,29.79,WNW,292,0.0,0.0,80,0.00,,,0.05,WUHU21623XXSP,2013-12-21 05:52:00,
2013-12-20 23:58:00,33.8,28.2,29.79,WNW,292,0.0,0.0,80,0.00,,,0.00,WUHU21623XXSP,2013-12-21 05:58:00,